Malvern, Ohio
Current Conditions -  °F | °C
As of 8:53 AM on Thursday 18 Dec 2014 (Local Time) from KPHD Reporting Station
Overcast Overcast  
Wind Chill: 23°   Ceiling: 2500
Heat Index: 29°   Visibility: 10mi
Dew Point: 20°   Wind: 6mph
Humidity: 69%   Direction: 260°W
Pressure: 30.23"   Gusts: NA
Location:  40.69°N, 81.18°W
Report Text: KPHD 181353Z AUTO 26005KT 10SM OVC025 M02/M07 A3023 RMK AO2 SLP247 T10171067
Loading
Personal Weather Stations






























Interactive Weather Map New forecast layout! Learn more

10-Day Weather Forecast

Advertisements
Track Severe Weather on mobile